Whitwell, Tennessee
Current Conditions -  °F | °C
As of 5:53 AM on Friday 28 Nov 2014 (Local Time) from KCHA Reporting Station
Scattered Clouds Scattered Clouds  
Wind Chill: 27°   Ceiling: Unl
Heat Index: 27°   Visibility: 10mi
Dew Point: 19°   Wind: 3mph
Humidity: 72%   Direction: 330°NNW
Pressure: 30.43"   Gusts: NA
Location:  35.2°N, 85.52°W
Report Text: KCHA 281153Z 33003KT 10SM FEW032 SCT150 M03/M07 A3043 RMK AO2 SLP308 70001 T10281072 10006 21033 53001
Loading
Personal Weather Stations






























Interactive Weather Map New forecast layout! Learn more

10-Day Weather Forecast

Advertisements
Track Severe Weather on mobile